sensor_id;sensor_type;location;lat;lon;timestamp;P1;durP1;ratioP1;P2;durP2;ratioP2
20619;SDS011;10469;42.720;23.252;2022-07-23T05:32:46;16.80;;;8.82;;
20619;SDS011;10469;42.720;23.252;2022-07-23T05:35:12;17.65;;;7.72;;
20619;SDS011;10469;42.720;23.252;2022-07-23T05:37:38;12.05;;;7.57;;
20619;SDS011;10469;42.720;23.252;2022-07-23T05:40:04;18.65;;;8.75;;
20619;SDS011;10469;42.720;23.252;2022-07-23T05:42:32;22.20;;;8.40;;
20619;SDS011;10469;42.720;23.252;2022-07-23T05:44:58;22.23;;;8.93;;
20619;SDS011;10469;42.720;23.252;2022-07-23T05:47:24;14.88;;;9.40;;
20619;SDS011;10469;42.720;23.252;2022-07-23T05:49:49;18.85;;;8.93;;
20619;SDS011;10469;42.720;23.252;2022-07-23T05:52:14;15.23;;;8.98;;
20619;SDS011;10469;42.720;23.252;2022-07-23T05:54:40;14.73;;;8.95;;
20619;SDS011;10469;42.720;23.252;2022-07-23T05:57:05;24.45;;;9.45;;
20619;SDS011;10469;42.720;23.252;2022-07-23T05:59:31;22.50;;;9.32;;
20619;SDS011;10469;42.720;23.252;2022-07-23T06:01:56;19.17;;;9.20;;
20619;SDS011;10469;42.720;23.252;2022-07-23T06:04:22;16.80;;;9.02;;
20619;SDS011;10469;42.720;23.252;2022-07-23T06:06:47;18.88;;;9.25;;
20619;SDS011;10469;42.720;23.252;2022-07-23T06:09:13;15.23;;;9.32;;
20619;SDS011;10469;42.720;23.252;2022-07-23T06:11:39;22.98;;;9.43;;
20619;SDS011;10469;42.720;23.252;2022-07-23T06:14:04;19.30;;;9.60;;
20619;SDS011;10469;42.720;23.252;2022-07-23T06:16:30;18.88;;;10.13;;
20619;SDS011;10469;42.720;23.252;2022-07-23T06:18:56;15.77;;;10.20;;
20619;SDS011;10469;42.720;23.252;2022-07-23T06:21:21;22.83;;;9.60;;
20619;SDS011;10469;42.720;23.252;2022-07-23T06:23:47;16.05;;;10.38;;
20619;SDS011;10469;42.720;23.252;2022-07-23T06:26:12;20.92;;;9.38;;
20619;SDS011;10469;42.720;23.252;2022-07-23T06:28:38;22.63;;;9.98;;
20619;SDS011;10469;42.720;23.252;2022-07-23T06:31:03;25.60;;;9.95;;
20619;SDS011;10469;42.720;23.252;2022-07-23T06:33:28;19.45;;;8.82;;
20619;SDS011;10469;42.720;23.252;2022-07-23T06:35:54;17.73;;;8.45;;
20619;SDS011;10469;42.720;23.252;2022-07-23T06:38:19;16.60;;;8.68;;
20619;SDS011;10469;42.720;23.252;2022-07-23T06:40:45;17.63;;;9.00;;
20619;SDS011;10469;42.720;23.252;2022-07-23T06:43:13;14.48;;;8.05;;
20619;SDS011;10469;42.720;23.252;2022-07-23T06:45:38;17.20;;;8.93;;
20619;SDS011;10469;42.720;23.252;2022-07-23T06:48:04;16.15;;;8.45;;
20619;SDS011;10469;42.720;23.252;2022-07-23T06:50:30;16.92;;;8.73;;
20619;SDS011;10469;42.720;23.252;2022-07-23T06:52:55;15.50;;;7.85;;
20619;SDS011;10469;42.720;23.252;2022-07-23T06:55:20;16.55;;;8.30;;
20619;SDS011;10469;42.720;23.252;2022-07-23T06:57:46;18.90;;;7.75;;
20619;SDS011;10469;42.720;23.252;2022-07-23T07:00:11;17.90;;;8.38;;
20619;SDS011;10469;42.720;23.252;2022-07-23T07:02:37;16.92;;;8.02;;
20619;SDS011;10469;42.720;23.252;2022-07-23T07:05:03;13.30;;;7.43;;
20619;SDS011;10469;42.720;23.252;2022-07-23T07:07:28;20.25;;;8.18;;
20619;SDS011;10469;42.720;23.252;2022-07-23T07:09:54;20.20;;;8.90;;
20619;SDS011;10469;42.720;23.252;2022-07-23T07:12:19;17.75;;;8.10;;
20619;SDS011;10469;42.720;23.252;2022-07-23T07:14:45;19.08;;;8.02;;
20619;SDS011;10469;42.720;23.252;2022-07-23T07:17:10;16.58;;;7.55;;
20619;SDS011;10469;42.720;23.252;2022-07-23T07:19:36;21.17;;;7.75;;
20619;SDS011;10469;42.720;23.252;2022-07-23T07:22:01;18.45;;;7.20;;
20619;SDS011;10469;42.720;23.252;2022-07-23T07:24:27;24.02;;;7.93;;
20619;SDS011;10469;42.720;23.252;2022-07-23T07:26:52;14.88;;;8.27;;
20619;SDS011;10469;42.720;23.252;2022-07-23T07:29:18;16.98;;;8.10;;
20619;SDS011;10469;42.720;23.252;2022-07-23T07:31:43;25.38;;;8.57;;
20619;SDS011;10469;42.720;23.252;2022-07-23T07:34:09;19.35;;;8.10;;
20619;SDS011;10469;42.720;23.252;2022-07-23T07:36:35;20.95;;;7.82;;
20619;SDS011;10469;42.720;23.252;2022-07-23T07:39:02;19.55;;;7.30;;
20619;SDS011;10469;42.720;23.252;2022-07-23T07:41:30;19.70;;;7.75;;
20619;SDS011;10469;42.720;23.252;2022-07-23T07:43:56;20.05;;;8.68;;
20619;SDS011;10469;42.720;23.252;2022-07-23T07:46:22;12.10;;;6.95;;
20619;SDS011;10469;42.720;23.252;2022-07-23T07:48:49;18.25;;;7.70;;
20619;SDS011;10469;42.720;23.252;2022-07-23T07:51:15;16.52;;;6.65;;
20619;SDS011;10469;42.720;23.252;2022-07-23T07:53:40;17.35;;;8.05;;
20619;SDS011;10469;42.720;23.252;2022-07-23T07:56:06;21.83;;;7.97;;
20619;SDS011;10469;42.720;23.252;2022-07-23T07:58:31;26.55;;;7.75;;
20619;SDS011;10469;42.720;23.252;2022-07-23T08:00:57;19.00;;;7.32;;
20619;SDS011;10469;42.720;23.252;2022-07-23T08:03:22;18.30;;;7.35;;
20619;SDS011;10469;42.720;23.252;2022-07-23T08:05:48;27.52;;;7.68;;
20619;SDS011;10469;42.720;23.252;2022-07-23T08:08:13;12.77;;;6.85;;
20619;SDS011;10469;42.720;23.252;2022-07-23T08:10:41;14.32;;;7.28;;
20619;SDS011;10469;42.720;23.252;2022-07-23T08:13:10;17.55;;;7.22;;
20619;SDS011;10469;42.720;23.252;2022-07-23T08:15:39;17.40;;;7.50;;
20619;SDS011;10469;42.720;23.252;2022-07-23T08:18:05;25.63;;;7.45;;
20619;SDS011;10469;42.720;23.252;2022-07-23T08:20:30;21.42;;;7.10;;
20619;SDS011;10469;42.720;23.252;2022-07-23T08:25:25;17.10;;;7.95;;
20619;SDS011;10469;42.720;23.252;2022-07-23T08:27:52;15.40;;;7.00;;
20619;SDS011;10469;42.720;23.252;2022-07-23T08:30:19;19.70;;;7.35;;
20619;SDS011;10469;42.720;23.252;2022-07-23T08:32:49;15.15;;;7.60;;
20619;SDS011;10469;42.720;23.252;2022-07-23T08:35:21;17.30;;;7.63;;
20619;SDS011;10469;42.720;23.252;2022-07-23T08:38:01;23.23;;;7.70;;
20619;SDS011;10469;42.720;23.252;2022-07-23T08:40:31;16.00;;;7.05;;
20619;SDS011;10469;42.720;23.252;2022-07-23T08:42:58;14.63;;;7.93;;
20619;SDS011;10469;42.720;23.252;2022-07-23T08:45:25;21.05;;;6.85;;
20619;SDS011;10469;42.720;23.252;2022-07-23T08:47:55;18.52;;;7.43;;
20619;SDS011;10469;42.720;23.252;2022-07-23T08:50:26;13.95;;;7.43;;
20619;SDS011;10469;42.720;23.252;2022-07-23T08:52:52;23.27;;;7.20;;
20619;SDS011;10469;42.720;23.252;2022-07-23T08:55:18;15.70;;;7.50;;
20619;SDS011;10469;42.720;23.252;2022-07-23T08:57:49;15.85;;;7.63;;
20619;SDS011;10469;42.720;23.252;2022-07-23T09:00:17;18.98;;;8.07;;
20619;SDS011;10469;42.720;23.252;2022-07-23T09:02:44;16.65;;;6.90;;
20619;SDS011;10469;42.720;23.252;2022-07-23T09:05:11;14.00;;;7.25;;
20619;SDS011;10469;42.720;23.252;2022-07-23T09:07:38;14.02;;;7.03;;
20619;SDS011;10469;42.720;23.252;2022-07-23T09:10:29;14.63;;;7.28;;
20619;SDS011;10469;42.720;23.252;2022-07-23T09:12:56;17.45;;;7.78;;
20619;SDS011;10469;42.720;23.252;2022-07-23T09:15:21;16.15;;;7.55;;
20619;SDS011;10469;42.720;23.252;2022-07-23T09:17:47;16.20;;;6.57;;
20619;SDS011;10469;42.720;23.252;2022-07-23T09:20:14;20.42;;;7.53;;
20619;SDS011;10469;42.720;23.252;2022-07-23T09:22:47;12.27;;;6.80;;
20619;SDS011;10469;42.720;23.252;2022-07-23T09:25:17;15.70;;;7.00;;
20619;SDS011;10469;42.720;23.252;2022-07-23T09:27:57;13.10;;;6.38;;
20619;SDS011;10469;42.720;23.252;2022-07-23T09:30:26;17.05;;;7.47;;
20619;SDS011;10469;42.720;23.252;2022-07-23T09:35:48;14.00;;;6.60;;
20619;SDS011;10469;42.720;23.252;2022-07-23T09:38:15;14.55;;;6.32;;
20619;SDS011;10469;42.720;23.252;2022-07-23T09:40:42;20.05;;;7.00;;
20619;SDS011;10469;42.720;23.252;2022-07-23T09:43:08;20.08;;;6.32;;
20619;SDS011;10469;42.720;23.252;2022-07-23T09:45:34;10.48;;;6.10;;
20619;SDS011;10469;42.720;23.252;2022-07-23T09:50:39;15.90;;;6.75;;
20619;SDS011;10469;42.720;23.252;2022-07-23T09:53:05;17.00;;;6.25;;
20619;SDS011;10469;42.720;23.252;2022-07-23T09:55:32;13.02;;;5.75;;
20619;SDS011;10469;42.720;23.252;2022-07-23T09:58:03;14.48;;;6.28;;
20619;SDS011;10469;42.720;23.252;2022-07-23T10:00:30;12.63;;;6.25;;
20619;SDS011;10469;42.720;23.252;2022-07-23T10:02:57;20.42;;;5.97;;
20619;SDS011;10469;42.720;23.252;2022-07-23T10:05:24;14.18;;;6.35;;
20619;SDS011;10469;42.720;23.252;2022-07-23T10:07:50;16.38;;;6.07;;
20619;SDS011;10469;42.720;23.252;2022-07-23T10:10:17;21.95;;;6.68;;
20619;SDS011;10469;42.720;23.252;2022-07-23T10:12:46;18.98;;;6.28;;
20619;SDS011;10469;42.720;23.252;2022-07-23T10:15:18;16.35;;;4.82;;
20619;SDS011;10469;42.720;23.252;2022-07-23T10:17:44;19.17;;;6.80;;
20619;SDS011;10469;42.720;23.252;2022-07-23T10:20:09;11.82;;;5.55;;
20619;SDS011;10469;42.720;23.252;2022-07-23T10:22:39;12.32;;;5.35;;
20619;SDS011;10469;42.720;23.252;2022-07-23T10:36:18;11.32;;;5.00;;
20619;SDS011;10469;42.720;23.252;2022-07-23T10:38:50;10.75;;;5.35;;
20619;SDS011;10469;42.720;23.252;2022-07-23T10:44:45;10.73;;;6.13;;
20619;SDS011;10469;42.720;23.252;2022-07-23T10:47:13;14.82;;;5.50;;
20619;SDS011;10469;42.720;23.252;2022-07-23T10:49:50;18.60;;;5.53;;
20619;SDS011;10469;42.720;23.252;2022-07-23T10:52:17;15.10;;;5.03;;
20619;SDS011;10469;42.720;23.252;2022-07-23T10:54:51;14.25;;;4.95;;
20619;SDS011;10469;42.720;23.252;2022-07-23T10:57:24;19.25;;;5.68;;
20619;SDS011;10469;42.720;23.252;2022-07-23T11:00:09;15.70;;;5.07;;
20619;SDS011;10469;42.720;23.252;2022-07-23T11:02:38;17.88;;;5.55;;
20619;SDS011;10469;42.720;23.252;2022-07-23T11:05:06;15.13;;;5.32;;
20619;SDS011;10469;42.720;23.252;2022-07-23T11:08:21;14.32;;;5.47;;
20619;SDS011;10469;42.720;23.252;2022-07-23T11:10:31;14.05;;;4.80;;
20619;SDS011;10469;42.720;23.252;2022-07-23T11:13:27;18.92;;;4.82;;
20619;SDS011;10469;42.720;23.252;2022-07-23T11:24:03;14.40;;;5.20;;
20619;SDS011;10469;42.720;23.252;2022-07-23T11:50:24;17.75;;;5.22;;
20619;SDS011;10469;42.720;23.252;2022-07-23T11:52:51;20.02;;;5.70;;
20619;SDS011;10469;42.720;23.252;2022-07-23T11:55:17;17.92;;;5.45;;
20619;SDS011;10469;42.720;23.252;2022-07-23T11:57:42;19.70;;;5.65;;
20619;SDS011;10469;42.720;23.252;2022-07-23T12:00:15;21.98;;;5.57;;
20619;SDS011;10469;42.720;23.252;2022-07-23T12:02:46;20.23;;;5.57;;
20619;SDS011;10469;42.720;23.252;2022-07-23T12:05:20;26.70;;;6.72;;
20619;SDS011;10469;42.720;23.252;2022-07-23T12:07:49;21.77;;;6.50;;
20619;SDS011;10469;42.720;23.252;2022-07-23T12:10:19;25.48;;;6.13;;
20619;SDS011;10469;42.720;23.252;2022-07-23T12:12:49;15.30;;;5.25;;
20619;SDS011;10469;42.720;23.252;2022-07-23T12:15:17;19.85;;;5.32;;
20619;SDS011;10469;42.720;23.252;2022-07-23T12:17:46;27.58;;;5.25;;
20619;SDS011;10469;42.720;23.252;2022-07-23T12:20:14;24.48;;;6.45;;
20619;SDS011;10469;42.720;23.252;2022-07-23T12:22:42;20.83;;;5.18;;
20619;SDS011;10469;42.720;23.252;2022-07-23T12:27:42;21.45;;;6.35;;
20619;SDS011;10469;42.720;23.252;2022-07-23T12:30:18;17.25;;;5.82;;
20619;SDS011;10469;42.720;23.252;2022-07-23T12:32:46;23.42;;;6.30;;
20619;SDS011;10469;42.720;23.252;2022-07-23T12:35:14;16.80;;;5.15;;
20619;SDS011;10469;42.720;23.252;2022-07-23T12:37:40;23.45;;;5.80;;
20619;SDS011;10469;42.720;23.252;2022-07-23T12:43:11;20.48;;;6.18;;
20619;SDS011;10469;42.720;23.252;2022-07-23T12:48:23;18.35;;;4.95;;
20619;SDS011;10469;42.720;23.252;2022-07-23T12:53:31;19.45;;;6.82;;
20619;SDS011;10469;42.720;23.252;2022-07-23T12:56:18;23.70;;;5.70;;
20619;SDS011;10469;42.720;23.252;2022-07-23T13:06:20;20.65;;;5.25;;
20619;SDS011;10469;42.720;23.252;2022-07-23T13:08:46;15.27;;;4.70;;
20619;SDS011;10469;42.720;23.252;2022-07-23T13:11:11;17.02;;;5.18;;
20619;SDS011;10469;42.720;23.252;2022-07-23T13:13:37;19.48;;;4.88;;
20619;SDS011;10469;42.720;23.252;2022-07-23T13:16:03;16.23;;;4.85;;
20619;SDS011;10469;42.720;23.252;2022-07-23T13:18:29;22.40;;;5.25;;
20619;SDS011;10469;42.720;23.252;2022-07-23T13:20:55;18.70;;;5.28;;
20619;SDS011;10469;42.720;23.252;2022-07-23T13:23:21;20.50;;;4.53;;
20619;SDS011;10469;42.720;23.252;2022-07-23T13:25:47;17.33;;;4.65;;
20619;SDS011;10469;42.720;23.252;2022-07-23T13:28:14;10.63;;;4.57;;
20619;SDS011;10469;42.720;23.252;2022-07-23T13:30:40;19.10;;;5.80;;
20619;SDS011;10469;42.720;23.252;2022-07-23T13:33:07;18.15;;;4.95;;
20619;SDS011;10469;42.720;23.252;2022-07-23T13:35:33;21.48;;;5.25;;
20619;SDS011;10469;42.720;23.252;2022-07-23T13:38:01;12.20;;;4.47;;
20619;SDS011;10469;42.720;23.252;2022-07-23T13:40:27;14.77;;;4.85;;
20619;SDS011;10469;42.720;23.252;2022-07-23T13:42:52;20.98;;;6.03;;
20619;SDS011;10469;42.720;23.252;2022-07-23T13:45:18;19.38;;;4.68;;
20619;SDS011;10469;42.720;23.252;2022-07-23T13:47:44;21.65;;;5.13;;
20619;SDS011;10469;42.720;23.252;2022-07-23T13:50:09;14.07;;;4.65;;
20619;SDS011;10469;42.720;23.252;2022-07-23T13:52:35;12.18;;;5.03;;
20619;SDS011;10469;42.720;23.252;2022-07-23T13:55:01;16.10;;;5.68;;
20619;SDS011;10469;42.720;23.252;2022-07-23T13:57:28;14.32;;;5.18;;
20619;SDS011;10469;42.720;23.252;2022-07-23T13:59:54;14.25;;;4.55;;
20619;SDS011;10469;42.720;23.252;2022-07-23T14:02:19;11.73;;;4.07;;
20619;SDS011;10469;42.720;23.252;2022-07-23T14:04:45;15.55;;;4.28;;
20619;SDS011;10469;42.720;23.252;2022-07-23T14:07:10;16.30;;;5.07;;
20619;SDS011;10469;42.720;23.252;2022-07-23T14:09:36;15.95;;;5.20;;
20619;SDS011;10469;42.720;23.252;2022-07-23T14:12:03;18.17;;;4.28;;
20619;SDS011;10469;42.720;23.252;2022-07-23T14:14:29;16.77;;;4.68;;
20619;SDS011;10469;42.720;23.252;2022-07-23T14:16:55;16.83;;;4.95;;
20619;SDS011;10469;42.720;23.252;2022-07-23T14:19:21;11.20;;;4.30;;
20619;SDS011;10469;42.720;23.252;2022-07-23T14:21:47;16.13;;;4.55;;
20619;SDS011;10469;42.720;23.252;2022-07-23T14:24:13;22.98;;;5.28;;
20619;SDS011;10469;42.720;23.252;2022-07-23T14:26:39;11.43;;;4.55;;
20619;SDS011;10469;42.720;23.252;2022-07-23T14:29:05;11.65;;;4.38;;
20619;SDS011;10469;42.720;23.252;2022-07-23T14:31:31;17.23;;;4.78;;
20619;SDS011;10469;42.720;23.252;2022-07-23T14:33:56;14.68;;;5.00;;
20619;SDS011;10469;42.720;23.252;2022-07-23T14:36:22;14.60;;;5.03;;
20619;SDS011;10469;42.720;23.252;2022-07-23T14:38:47;18.05;;;5.70;;
20619;SDS011;10469;42.720;23.252;2022-07-23T14:41:13;16.85;;;4.78;;
20619;SDS011;10469;42.720;23.252;2022-07-23T14:43:38;14.25;;;4.82;;
20619;SDS011;10469;42.720;23.252;2022-07-23T14:46:04;16.15;;;4.43;;
20619;SDS011;10469;42.720;23.252;2022-07-23T14:48:30;13.75;;;4.70;;
20619;SDS011;10469;42.720;23.252;2022-07-23T14:50:56;15.00;;;4.80;;
20619;SDS011;10469;42.720;23.252;2022-07-23T14:53:21;17.38;;;5.07;;
20619;SDS011;10469;42.720;23.252;2022-07-23T14:55:47;14.80;;;5.07;;
20619;SDS011;10469;42.720;23.252;2022-07-23T14:58:12;13.52;;;4.82;;
20619;SDS011;10469;42.720;23.252;2022-07-23T15:00:38;16.17;;;5.07;;
20619;SDS011;10469;42.720;23.252;2022-07-23T15:03:03;22.75;;;5.32;;
20619;SDS011;10469;42.720;23.252;2022-07-23T15:05:29;14.77;;;4.65;;
20619;SDS011;10469;42.720;23.252;2022-07-23T15:07:55;14.45;;;5.00;;
20619;SDS011;10469;42.720;23.252;2022-07-23T15:10:21;11.93;;;5.00;;
20619;SDS011;10469;42.720;23.252;2022-07-23T15:12:46;22.30;;;5.18;;
20619;SDS011;10469;42.720;23.252;2022-07-23T15:15:12;12.98;;;5.07;;
20619;SDS011;10469;42.720;23.252;2022-07-23T15:17:38;18.38;;;5.28;;
20619;SDS011;10469;42.720;23.252;2022-07-23T15:20:04;16.17;;;4.80;;
20619;SDS011;10469;42.720;23.252;2022-07-23T15:22:30;19.30;;;4.88;;
20619;SDS011;10469;42.720;23.252;2022-07-23T15:24:55;13.07;;;5.40;;
20619;SDS011;10469;42.720;23.252;2022-07-23T15:27:21;13.93;;;4.85;;
20619;SDS011;10469;42.720;23.252;2022-07-23T15:29:47;14.73;;;4.53;;
20619;SDS011;10469;42.720;23.252;2022-07-23T15:32:12;18.85;;;4.85;;
20619;SDS011;10469;42.720;23.252;2022-07-23T15:34:38;17.42;;;5.20;;
20619;SDS011;10469;42.720;23.252;2022-07-23T15:37:04;12.23;;;4.90;;
20619;SDS011;10469;42.720;23.252;2022-07-23T15:39:32;11.00;;;5.00;;
20619;SDS011;10469;42.720;23.252;2022-07-23T15:41:59;18.63;;;4.60;;
20619;SDS011;10469;42.720;23.252;2022-07-23T15:44:25;11.50;;;5.30;;
20619;SDS011;10469;42.720;23.252;2022-07-23T15:46:51;19.35;;;5.03;;
20619;SDS011;10469;42.720;23.252;2022-07-23T15:49:16;16.05;;;5.13;;
20619;SDS011;10469;42.720;23.252;2022-07-23T15:51:42;11.38;;;4.88;;
20619;SDS011;10469;42.720;23.252;2022-07-23T15:54:07;13.77;;;4.88;;
20619;SDS011;10469;42.720;23.252;2022-07-23T15:56:33;16.30;;;5.18;;
20619;SDS011;10469;42.720;23.252;2022-07-23T15:58:58;16.92;;;4.72;;
20619;SDS011;10469;42.720;23.252;2022-07-23T16:01:24;16.13;;;5.30;;
20619;SDS011;10469;42.720;23.252;2022-07-23T16:03:49;11.13;;;5.40;;
20619;SDS011;10469;42.720;23.252;2022-07-23T16:06:15;15.02;;;5.60;;
20619;SDS011;10469;42.720;23.252;2022-07-23T16:08:40;14.60;;;5.35;;
20619;SDS011;10469;42.720;23.252;2022-07-23T16:11:06;18.33;;;6.07;;
20619;SDS011;10469;42.720;23.252;2022-07-23T16:13:32;11.88;;;5.35;;
20619;SDS011;10469;42.720;23.252;2022-07-23T16:15:57;17.83;;;6.10;;
20619;SDS011;10469;42.720;23.252;2022-07-23T16:18:23;12.00;;;4.85;;
20619;SDS011;10469;42.720;23.252;2022-07-23T16:20:50;14.40;;;5.20;;
20619;SDS011;10469;42.720;23.252;2022-07-23T16:23:17;19.65;;;5.85;;
20619;SDS011;10469;42.720;23.252;2022-07-23T16:25:43;13.25;;;6.25;;
20619;SDS011;10469;42.720;23.252;2022-07-23T16:28:09;13.43;;;6.55;;
20619;SDS011;10469;42.720;23.252;2022-07-23T16:30:34;24.80;;;5.85;;
20619;SDS011;10469;42.720;23.252;2022-07-23T16:33:00;19.20;;;6.13;;
20619;SDS011;10469;42.720;23.252;2022-07-23T16:35:26;23.42;;;6.40;;
20619;SDS011;10469;42.720;23.252;2022-07-23T16:37:52;14.55;;;6.03;;
20619;SDS011;10469;42.720;23.252;2022-07-23T16:40:18;19.25;;;6.43;;
20619;SDS011;10469;42.720;23.252;2022-07-23T16:42:43;15.43;;;5.85;;
20619;SDS011;10469;42.720;23.252;2022-07-23T16:45:09;13.77;;;6.30;;
20619;SDS011;10469;42.720;23.252;2022-07-23T16:47:36;18.15;;;5.68;;
20619;SDS011;10469;42.720;23.252;2022-07-23T16:50:03;16.33;;;5.95;;
20619;SDS011;10469;42.720;23.252;2022-07-23T16:52:30;15.73;;;6.07;;
20619;SDS011;10469;42.720;23.252;2022-07-23T16:54:55;18.23;;;6.90;;
20619;SDS011;10469;42.720;23.252;2022-07-23T16:57:21;13.48;;;6.38;;
20619;SDS011;10469;42.720;23.252;2022-07-23T16:59:47;12.82;;;5.80;;
20619;SDS011;10469;42.720;23.252;2022-07-23T17:02:12;17.90;;;6.70;;
20619;SDS011;10469;42.720;23.252;2022-07-23T17:04:38;18.83;;;6.15;;
20619;SDS011;10469;42.720;23.252;2022-07-23T17:07:03;20.42;;;6.38;;
20619;SDS011;10469;42.720;23.252;2022-07-23T17:09:30;15.00;;;6.28;;
20619;SDS011;10469;42.720;23.252;2022-07-23T17:11:58;20.40;;;6.68;;
20619;SDS011;10469;42.720;23.252;2022-07-23T17:14:24;15.68;;;6.15;;
20619;SDS011;10469;42.720;23.252;2022-07-23T17:16:50;18.58;;;6.55;;
20619;SDS011;10469;42.720;23.252;2022-07-23T17:19:15;18.30;;;7.50;;
20619;SDS011;10469;42.720;23.252;2022-07-23T17:21:41;18.60;;;6.55;;
20619;SDS011;10469;42.720;23.252;2022-07-23T17:24:07;19.27;;;6.60;;
20619;SDS011;10469;42.720;23.252;2022-07-23T17:26:32;16.27;;;6.60;;
20619;SDS011;10469;42.720;23.252;2022-07-23T17:28:59;22.17;;;7.07;;
20619;SDS011;10469;42.720;23.252;2022-07-23T17:31:25;15.45;;;6.85;;
20619;SDS011;10469;42.720;23.252;2022-07-23T17:33:51;17.65;;;7.00;;
20619;SDS011;10469;42.720;23.252;2022-07-23T17:36:16;21.63;;;8.20;;
20619;SDS011;10469;42.720;23.252;2022-07-23T17:38:44;12.40;;;6.20;;
20619;SDS011;10469;42.720;23.252;2022-07-23T17:41:09;16.55;;;7.10;;
20619;SDS011;10469;42.720;23.252;2022-07-23T17:43:35;24.67;;;7.07;;
20619;SDS011;10469;42.720;23.252;2022-07-23T17:46:01;16.60;;;6.93;;
20619;SDS011;10469;42.720;23.252;2022-07-23T17:48:26;17.63;;;7.28;;
20619;SDS011;10469;42.720;23.252;2022-07-23T17:50:52;18.13;;;7.68;;
20619;SDS011;10469;42.720;23.252;2022-07-23T17:53:21;21.15;;;7.32;;
20619;SDS011;10469;42.720;23.252;2022-07-23T17:55:48;15.68;;;7.50;;
20619;SDS011;10469;42.720;23.252;2022-07-23T17:58:14;23.25;;;7.72;;
20619;SDS011;10469;42.720;23.252;2022-07-23T18:00:39;23.55;;;7.82;;
20619;SDS011;10469;42.720;23.252;2022-07-23T18:03:05;26.30;;;8.38;;
20619;SDS011;10469;42.720;23.252;2022-07-23T18:05:31;19.17;;;10.23;;
20619;SDS011;10469;42.720;23.252;2022-07-23T18:07:56;21.13;;;9.32;;
20619;SDS011;10469;42.720;23.252;2022-07-23T18:10:22;24.75;;;12.30;;
20619;SDS011;10469;42.720;23.252;2022-07-23T18:12:47;26.15;;;10.27;;
20619;SDS011;10469;42.720;23.252;2022-07-23T18:15:13;21.83;;;9.90;;
20619;SDS011;10469;42.720;23.252;2022-07-23T18:17:39;23.15;;;9.73;;
20619;SDS011;10469;42.720;23.252;2022-07-23T18:20:06;18.02;;;7.95;;
20619;SDS011;10469;42.720;23.252;2022-07-23T18:22:33;16.20;;;8.25;;
20619;SDS011;10469;42.720;23.252;2022-07-23T18:24:59;17.73;;;8.18;;
20619;SDS011;10469;42.720;23.252;2022-07-23T18:27:24;21.92;;;7.68;;
20619;SDS011;10469;42.720;23.252;2022-07-23T18:29:50;16.25;;;8.30;;
20619;SDS011;10469;42.720;23.252;2022-07-23T18:32:16;17.80;;;7.82;;
20619;SDS011;10469;42.720;23.252;2022-07-23T18:34:41;19.63;;;11.75;;
20619;SDS011;10469;42.720;23.252;2022-07-23T18:37:07;19.83;;;8.85;;
20619;SDS011;10469;42.720;23.252;2022-07-23T18:39:33;16.48;;;7.90;;
20619;SDS011;10469;42.720;23.252;2022-07-23T18:42:00;20.00;;;9.05;;
20619;SDS011;10469;42.720;23.252;2022-07-23T18:44:26;22.40;;;9.50;;
20619;SDS011;10469;42.720;23.252;2022-07-23T18:46:51;17.60;;;7.85;;
20619;SDS011;10469;42.720;23.252;2022-07-23T18:49:17;16.90;;;8.43;;
20619;SDS011;10469;42.720;23.252;2022-07-23T18:51:42;20.52;;;7.53;;
20619;SDS011;10469;42.720;23.252;2022-07-23T18:54:08;17.33;;;8.00;;
20619;SDS011;10469;42.720;23.252;2022-07-23T18:56:35;17.55;;;7.53;;
20619;SDS011;10469;42.720;23.252;2022-07-23T18:59:01;13.57;;;6.47;;
20619;SDS011;10469;42.720;23.252;2022-07-23T19:01:28;15.73;;;7.47;;
20619;SDS011;10469;42.720;23.252;2022-07-23T19:03:55;15.00;;;9.10;;
20619;SDS011;10469;42.720;23.252;2022-07-23T19:06:22;16.42;;;8.57;;
20619;SDS011;10469;42.720;23.252;2022-07-23T19:08:47;18.80;;;7.63;;
20619;SDS011;10469;42.720;23.252;2022-07-23T19:11:13;20.10;;;6.90;;
20619;SDS011;10469;42.720;23.252;2022-07-23T19:13:38;17.13;;;7.55;;
20619;SDS011;10469;42.720;23.252;2022-07-23T19:16:04;20.00;;;8.85;;
20619;SDS011;10469;42.720;23.252;2022-07-23T19:18:30;16.77;;;7.55;;
20619;SDS011;10469;42.720;23.252;2022-07-23T19:20:56;17.15;;;6.30;;
20619;SDS011;10469;42.720;23.252;2022-07-23T19:23:21;16.73;;;6.82;;
20619;SDS011;10469;42.720;23.252;2022-07-23T19:25:47;18.02;;;6.85;;
20619;SDS011;10469;42.720;23.252;2022-07-23T19:28:13;17.88;;;6.55;;
20619;SDS011;10469;42.720;23.252;2022-07-23T19:30:38;16.13;;;7.13;;
20619;SDS011;10469;42.720;23.252;2022-07-23T19:33:04;14.57;;;7.50;;
20619;SDS011;10469;42.720;23.252;2022-07-23T19:35:30;16.98;;;7.50;;
20619;SDS011;10469;42.720;23.252;2022-07-23T19:37:57;19.63;;;7.57;;
20619;SDS011;10469;42.720;23.252;2022-07-23T19:40:22;15.52;;;7.55;;
20619;SDS011;10469;42.720;23.252;2022-07-23T19:42:49;20.10;;;8.02;;
20619;SDS011;10469;42.720;23.252;2022-07-23T19:45:15;23.05;;;8.52;;
20619;SDS011;10469;42.720;23.252;2022-07-23T19:47:40;13.13;;;7.35;;
20619;SDS011;10469;42.720;23.252;2022-07-23T19:50:11;21.88;;;7.45;;
20619;SDS011;10469;42.720;23.252;2022-07-23T19:52:39;19.98;;;8.05;;
20619;SDS011;10469;42.720;23.252;2022-07-23T19:55:05;26.52;;;9.05;;
20619;SDS011;10469;42.720;23.252;2022-07-23T19:57:32;18.85;;;9.68;;
20619;SDS011;10469;42.720;23.252;2022-07-23T19:59:57;30.40;;;9.98;;
20619;SDS011;10469;42.720;23.252;2022-07-23T20:02:23;21.25;;;9.63;;
20619;SDS011;10469;42.720;23.252;2022-07-23T20:04:48;21.98;;;9.05;;
20619;SDS011;10469;42.720;23.252;2022-07-23T20:07:14;24.55;;;9.88;;
20619;SDS011;10469;42.720;23.252;2022-07-23T20:09:40;16.10;;;8.68;;
20619;SDS011;10469;42.720;23.252;2022-07-23T20:12:06;16.13;;;6.78;;
20619;SDS011;10469;42.720;23.252;2022-07-23T20:14:32;25.10;;;8.40;;
20619;SDS011;10469;42.720;23.252;2022-07-23T20:16:57;20.35;;;9.70;;
20619;SDS011;10469;42.720;23.252;2022-07-23T20:19:23;21.83;;;9.60;;
20619;SDS011;10469;42.720;23.252;2022-07-23T20:21:48;21.27;;;9.38;;
20619;SDS011;10469;42.720;23.252;2022-07-23T20:24:15;21.80;;;9.93;;
20619;SDS011;10469;42.720;23.252;2022-07-23T20:26:43;23.30;;;9.77;;
20619;SDS011;10469;42.720;23.252;2022-07-23T20:29:13;25.60;;;9.20;;
20619;SDS011;10469;42.720;23.252;2022-07-23T20:31:40;21.48;;;9.10;;
20619;SDS011;10469;42.720;23.252;2022-07-23T20:34:05;22.08;;;8.45;;
20619;SDS011;10469;42.720;23.252;2022-07-23T20:36:31;22.63;;;8.38;;
20619;SDS011;10469;42.720;23.252;2022-07-23T20:38:57;18.38;;;7.95;;
20619;SDS011;10469;42.720;23.252;2022-07-23T20:41:23;31.13;;;8.70;;
20619;SDS011;10469;42.720;23.252;2022-07-23T20:43:48;25.75;;;8.23;;
20619;SDS011;10469;42.720;23.252;2022-07-23T20:46:13;26.35;;;8.20;;
20619;SDS011;10469;42.720;23.252;2022-07-23T20:48:39;13.20;;;7.38;;
20619;SDS011;10469;42.720;23.252;2022-07-23T20:51:04;16.95;;;7.72;;
20619;SDS011;10469;42.720;23.252;2022-07-23T20:53:30;23.27;;;7.68;;
20619;SDS011;10469;42.720;23.252;2022-07-23T20:55:55;14.70;;;7.22;;
20619;SDS011;10469;42.720;23.252;2022-07-23T20:58:23;20.00;;;7.43;;
20619;SDS011;10469;42.720;23.252;2022-07-23T21:00:49;18.55;;;7.63;;
20619;SDS011;10469;42.720;23.252;2022-07-23T21:03:15;17.15;;;6.93;;